Flight Track Log - Related Links

Times and Time Zones

All times are in EDT time to prevent confusion due to time zone crossing. See the N75746 flight status page for this flight to view local times or setup timezone preferences in your user account.

Time Position Orientation Groundspeed Altitude Reporting Facility
EDT Latitude Longitude Course Direction KTS MPH feet Rate Location/Type
Sat 08:23:34 PM 40.0769 -83.0767 265° West 62 71 1,100  Level Indianapolis Center
Sat 08:23:52 PM 40.0764 -83.0847 265° West 72 83 1,300 667 Climbing Indianapolis Center
Sat 08:25:13 PM 40.0636 -83.1078 234° Southwest 65 75 2,200 634 Climbing Indianapolis Center
Sat 08:26:14 PM 40.0478 -83.1183 207° Southwest 65 75 2,800 535 Climbing Indianapolis Center
Sat 08:26:54 PM 40.0306 -83.1122 165° South 77 89 3,100 295 Climbing Indianapolis Center
Sat 08:27:15 PM 40.0292 -83.1128 197° South 68 78 3,100 -100 Level Indianapolis Center
Sat 08:27:54 PM 40.0075 -83.1150 184° South 96 110 3,000 -98 Descending Indianapolis Center
Sat 08:28:16 PM 39.9992 -83.1144 177° South 79 91 3,000  Level Indianapolis Center
Sat 08:28:55 PM 39.9822 -83.1147 181° South 87 100 3,000  Level Indianapolis Center
Sat 08:29:17 PM 39.9761 -83.1158 188° South 88 101 3,000  Level Indianapolis Center
Sat 08:30:02 PM 39.9550 -83.1169 182° South 84 97 3,000  Level Indianapolis Center
Sat 08:30:18 PM 39.9522 -83.1158 163° South 88 101 3,000  Level Indianapolis Center
Sat 08:31:02 PM 39.9317 -83.1197 188° South 85 98 3,000 -98 Level Indianapolis Center
Sat 08:31:19 PM 39.9283 -83.1183 162° South 85 98 2,900 -98 Descending Indianapolis Center
Sat 08:32:03 PM 39.9086 -83.1197 183° South 83 96 2,900 100 Level Indianapolis Center
Sat 08:32:19 PM 39.9042 -83.1194 177° South 86 99 3,000 98 Climbing Indianapolis Center
Sat 08:33:04 PM 39.8853 -83.1250 193° South 83 96 3,000  Level Indianapolis Center
Sat 08:33:20 PM 39.8806 -83.1242 172° South 85 98 3,000  Level Indianapolis Center
Sat 08:34:04 PM 39.8597 -83.1303 193° South 87 100 3,000  Level Indianapolis Center
Sat 08:34:21 PM 39.8569 -83.1311 193° South 86 99 3,000  Level Indianapolis Center
Sat 08:35:05 PM 39.8364 -83.1356 189° South 88 101 3,000  Level Indianapolis Center
Sat 08:35:22 PM 39.8328 -83.1356 180° South 86 99 3,000  Level Indianapolis Center
Sat 08:36:05 PM 39.8114 -83.1328 174° South 88 101 3,000  Level Indianapolis Center
Sat 08:36:23 PM 39.8089 -83.1325 175° South 85 98 3,000 98 Level Indianapolis Center
Sat 08:37:06 PM 39.7894 -83.1192 152° Southeast 87 100 3,100 100 Climbing Indianapolis Center
Sat 08:37:23 PM 39.7872 -83.1167 139° Southeast 87 100 3,100  Level Indianapolis Center
Sat 08:38:07 PM 39.7694 -83.1061 155° Southeast 85 98 3,100  Level Indianapolis Center
Sat 08:38:24 PM 39.7661 -83.1017 134° Southeast 87 100 3,100 -200 Level Indianapolis Center
Sat 08:39:07 PM 39.7494 -83.0903 152° Southeast 72 83 2,900 -393 Descending Indianapolis Center
Sat 08:39:25 PM 39.7444 -83.0889 168° South 86 99 2,700 -689 Descending Indianapolis Center
Sat 08:40:08 PM 39.7267 -83.0875 177° South 84 97 2,200 -393 Descending Indianapolis Center
Sat 08:40:26 PM 39.7217 -83.0844 155° Southeast 83 96 2,300 492 Climbing Indianapolis Center
Sat 08:41:09 PM 39.7072 -83.0664 136° Southeast 82 94 2,700 393 Climbing Indianapolis Center
Sat 08:41:27 PM 39.7053 -83.0636 132° Southeast 81 93 2,700 -100 Level Indianapolis Center
Sat 08:42:09 PM 39.6892 -83.0533 154° Southeast 71 82 2,600 -100 Descending Indianapolis Center
Sat 08:42:27 PM 39.6872 -83.0517 147° Southeast 76 87 2,600 -98 Level Indianapolis Center
Sat 08:43:10 PM 39.6708 -83.0458 165° South 75 86 2,500 -295 Descending Indianapolis Center
Sat 08:43:28 PM 39.6672 -83.0422 142° Southeast 75 86 2,300 -700 Descending Indianapolis Center
Sat 08:44:10 PM 39.6481 -83.0433 183° South 83 96 1,800 -590 Descending Indianapolis Center
Sat 08:44:29 PM 39.6436 -83.0439 185° South 78 90 1,700 -269 Descending Indianapolis Center
Sat 08:45:17 PM 39.6256 -83.0381 166° South 73 84 1,500 -165 Descending Indianapolis Center
Sat 08:46:18 PM 39.6078 -83.0225 146° Southeast 71 82 1,400 -99 Descending Indianapolis Center
Sat 08:47:18 PM 39.5944 -83.0019 130° Southeast 74 85 1,300  Descending Indianapolis Center
Sat 08:48:25 PM 39.5736 -82.9994 175° South 77 89 1,400  Climbing Indianapolis Center
Sat 08:49:33 PM 39.5542 -82.9939 168° South 73 84 1,300 -104 Descending Indianapolis Center
Sat 08:50:20 PM 39.5392 -82.9847 155° Southeast 70 81 1,200 20 Descending Indianapolis Center
Sat 08:52:00 PM 39.5804 -82.9907 354° North  Level FlightAware Approximate
Sat 08:54:35 PM 39.4972 -82.9853 354° North 65 75 1,400  Level Indianapolis Center
Sat 08:55:24 PM 39.4878 -83.0006 231° Southwest 72 83 2,000 661 Climbing Indianapolis Center
Sat 08:56:24 PM 39.5053 -83.0186 321° Northwest 106 122 2,600 496 Climbing Indianapolis Center
Sat 08:57:25 PM 39.5247 -83.0425 317° Northwest 101 116 3,000 198 Climbing Indianapolis Center
Sat 08:58:25 PM 39.5478 -83.0697 318° Northwest 114 131 3,000  Level Indianapolis Center
Sat 08:58:40 PM 39.5539 -83.0769 318° Northwest 105 121 3,000  Level Indianapolis Center
Sat 08:59:00 PM 39.7794 -83.0199 354° North  Level FlightAware Approximate
Sat 08:59:26 PM 39.5778 -83.0919 334° Northwest 126 145 3,000  Level Indianapolis Center
Sat 09:00:00 PM 39.8078 -83.0241 354° North  Level FlightAware Approximate
Sat 09:00:15 PM 39.6022 -83.1031 341° North 118 136 3,000  Level Indianapolis Center
Sat 09:00:41 PM 39.6156 -83.1075 346° North 116 133 3,100 100 Climbing Indianapolis Center
Sat 09:01:15 PM 39.6344 -83.1175 338° Northwest 119 137 3,100  Level Indianapolis Center
Sat 09:01:41 PM 39.6464 -83.1242 337° Northwest 118 136 3,100 -98 Level Indianapolis Center
Sat 09:02:16 PM 39.6647 -83.1347 336° Northwest 121 139 3,000  Descending Indianapolis Center
Sat 09:02:42 PM 39.6769 -83.1431 332° Northwest 120 138 3,100 111 Climbing Indianapolis Center
Sat 09:03:10 PM 39.6906 -83.1539 329° Northwest 118 136 3,100 -98 Level Indianapolis Center
Sat 09:03:43 PM 39.7061 -83.1631 336° Northwest 119 137 3,000 -98 Descending Indianapolis Center
Sat 09:04:11 PM 39.7211 -83.1683 345° North 118 136 3,000  Level Indianapolis Center
Sat 09:04:44 PM 39.7378 -83.1750 343° North 118 136 3,000  Level Indianapolis Center
Sat 09:05:12 PM 39.7536 -83.1803 346° North 117 135 3,000 100 Level Indianapolis Center
Sat 09:05:44 PM 39.7694 -83.1867 343° North 117 135 3,100  Climbing Indianapolis Center
Sat 09:06:12 PM 39.7864 -83.1922 346° North 119 137 3,000 -98 Descending Indianapolis Center
Sat 09:06:45 PM 39.8022 -83.1997 340° North 120 138 3,000  Level Indianapolis Center
Sat 09:07:13 PM 39.8189 -83.2069 342° North 121 139 3,000  Level Indianapolis Center
Sat 09:07:46 PM 39.8347 -83.2144 340° North 122 140 3,000  Level Indianapolis Center
Sat 09:08:14 PM 39.8492 -83.2242 333° Northwest 120 138 3,000  Level Indianapolis Center
Sat 09:08:47 PM 39.8656 -83.2308 343° North 121 139 3,000  Level Indianapolis Center
Sat 09:09:14 PM 39.8814 -83.2389 339° North 121 139 3,000  Level Indianapolis Center
Sat 09:09:47 PM 39.8989 -83.2436 348° North 123 142 3,000  Level Indianapolis Center
Sat 09:10:15 PM 39.9164 -83.2483 348° North 124 143 3,000  Level Indianapolis Center
Sat 09:10:48 PM 39.9314 -83.2572 336° Northwest 122 140 3,000  Level Indianapolis Center
Sat 09:11:16 PM 39.9461 -83.2708 325° Northwest 125 144 3,000  Level Indianapolis Center
Sat 09:11:49 PM 39.9608 -83.2806 333° Northwest 123 142 3,000  Level Indianapolis Center
Sat 09:12:16 PM 39.9761 -83.2908 333° Northwest 121 139 3,000  Level Indianapolis Center
Sat 09:12:50 PM 39.9928 -83.2975 343° North 123 142 3,000  Level Indianapolis Center
Sat 09:13:17 PM 40.0086 -83.3056 339° North 125 144 3,000  Level Indianapolis Center
Sat 09:13:50 PM 40.0256 -83.3136 340° North 125 144 3,000  Level Indianapolis Center
Sat 09:14:17 PM 40.0414 -83.3178 349° North 119 137 3,000  Level Indianapolis Center
Sat 09:14:51 PM 40.0589 -83.3119 14° North 120 138 3,000 98 Level Indianapolis Center
Sat 09:15:18 PM 40.0681 -83.2936 57° Northeast 103 119 3,100 98 Climbing Indianapolis Center
Sat 09:15:52 PM 40.0708 -83.2783 77° East 109 125 3,100 -179 Level Indianapolis Center
Sat 09:16:25 PM 40.0708 -83.2558 90° East 98 113 2,900 -295 Descending Indianapolis Center
Sat 09:16:53 PM 40.0703 -83.2428 93° East 100 115 2,800 -200 Descending Indianapolis Center
Sat 09:17:25 PM 40.0711 -83.2231 87° East 90 104 2,700 -100 Descending Indianapolis Center
Sat 09:17:53 PM 40.0708 -83.2106 92° East 94 108 2,700  Level Indianapolis Center
Sat 09:18:26 PM 40.0731 -83.1933 80° East 88 101 2,700 -295 Level Indianapolis Center
Sat 09:18:54 PM 40.0733 -83.1781 89° East 90 104 2,400 -627 Descending Indianapolis Center
Sat 09:19:33 PM 40.0717 -83.1525 95° East 95 109 2,000 -590 Descending Indianapolis Center
Sat 09:19:55 PM 40.0736 -83.1447 72° East 90 104 1,800 -500 Descending Indianapolis Center
Sat 09:20:33 PM 40.0764 -83.1175 82° East 105 121 1,500 -492 Descending Indianapolis Center
Sat 09:20:56 PM 40.0756 -83.1067 96° East 97 112 1,300 -217 Descending Indianapolis Center
Sat 09:21:56 PM 40.0769 -83.0650 87° East 99 114 1,200 -100 Descending Indianapolis Center
Sat 09:23:00 PM 40.0798 -83.0732 172° South  Level Estimated

Login

Don't have an account? Register now (free) for customized features, flight alerts, and more!